createdAt,value
2023-04-03T00:00:12.539Z,1024.17
2023-04-03T00:01:12.546Z,1024.19
2023-04-03T00:02:12.581Z,1024.19
2023-04-03T00:03:12.517Z,1024.19
2023-04-03T00:04:12.508Z,1024.19
2023-04-03T00:05:12.479Z,1024.21
2023-04-03T00:06:12.468Z,1024.28
2023-04-03T00:07:12.470Z,1024.25
2023-04-03T00:08:12.442Z,1024.20
2023-04-03T00:09:12.440Z,1024.25
2023-04-03T00:10:12.423Z,1024.26
2023-04-03T00:11:12.421Z,1024.23
2023-04-03T00:12:12.426Z,1024.18
2023-04-03T00:13:12.384Z,1024.31
2023-04-03T00:14:12.401Z,1024.29
2023-04-03T00:15:12.377Z,1024.27
2023-04-03T00:16:12.410Z,1024.31
2023-04-03T00:17:12.365Z,1024.26
2023-04-03T00:18:12.342Z,1024.28
2023-04-03T00:19:12.329Z,1024.31
2023-04-03T00:20:12.332Z,1024.33
2023-04-03T00:21:12.307Z,1024.26
2023-04-03T00:22:12.309Z,1024.35
2023-04-03T00:23:12.287Z,1024.25
2023-04-03T00:24:12.272Z,1024.28
2023-04-03T00:25:12.257Z,1024.31
2023-04-03T00:26:12.250Z,1024.28
2023-04-03T00:27:12.246Z,1024.26
2023-04-03T00:28:12.227Z,1024.26
2023-04-03T00:29:12.210Z,1024.28
2023-04-03T00:30:12.240Z,1024.28
2023-04-03T00:31:12.223Z,1024.21
2023-04-03T00:32:12.183Z,1024.30
2023-04-03T00:33:12.181Z,1024.29
2023-04-03T00:34:12.154Z,1024.25
2023-04-03T00:35:12.141Z,1024.33
2023-04-03T00:36:12.231Z,1024.26
2023-04-03T00:37:12.117Z,1024.28
2023-04-03T00:38:12.117Z,1024.30
2023-04-03T00:39:12.100Z,1024.27
2023-04-03T00:40:12.090Z,1024.31
2023-04-03T00:41:12.072Z,1024.30
2023-04-03T00:42:12.067Z,1024.30
2023-04-03T00:43:12.059Z,1024.34
2023-04-03T00:44:12.045Z,1024.31
2023-04-03T00:45:12.050Z,1024.34
2023-04-03T00:46:12.099Z,1024.29
2023-04-03T00:47:12.008Z,1024.35
2023-04-03T00:48:11.999Z,1024.35
2023-04-03T00:49:11.994Z,1024.39
2023-04-03T00:50:11.981Z,1024.38
2023-04-03T00:51:11.975Z,1024.38
2023-04-03T00:52:11.962Z,1024.39
2023-04-03T00:53:11.969Z,1024.37
2023-04-03T00:54:11.936Z,1024.35
2023-04-03T00:55:11.923Z,1024.39
2023-04-03T00:56:11.926Z,1024.43
2023-04-03T00:57:11.993Z,1024.41
2023-04-03T00:58:11.898Z,1024.46
2023-04-03T00:59:11.895Z,1024.39
2023-04-03T01:00:11.871Z,1024.40
2023-04-03T01:01:11.878Z,1024.42
2023-04-03T01:02:11.981Z,1024.42
2023-04-03T01:03:11.833Z,1024.41
2023-04-03T01:04:11.849Z,1024.38
2023-04-03T01:05:11.811Z,1024.40
2023-04-03T01:06:11.816Z,1024.35
2023-04-03T01:07:11.792Z,1024.39
2023-04-03T01:08:11.780Z,1024.37
2023-04-03T01:09:11.774Z,1024.40
2023-04-03T01:10:11.797Z,1024.35
2023-04-03T01:11:11.752Z,1024.37
2023-04-03T01:12:11.739Z,1024.40
2023-04-03T01:13:11.722Z,1024.34
2023-04-03T01:14:11.722Z,1024.42
2023-04-03T01:15:11.700Z,1024.43
2023-04-03T01:16:11.755Z,1024.42
2023-04-03T01:17:11.684Z,1024.40
2023-04-03T01:18:11.692Z,1024.41
2023-04-03T01:19:11.664Z,1024.44
2023-04-03T01:20:11.658Z,1024.39
2023-04-03T01:21:11.644Z,1024.44
2023-04-03T01:22:11.626Z,1024.40
2023-04-03T01:23:11.701Z,1024.44
2023-04-03T01:24:11.607Z,1024.44
2023-04-03T01:25:11.595Z,1024.43
2023-04-03T01:26:11.602Z,1024.47
2023-04-03T01:27:11.629Z,1024.45
2023-04-03T01:28:11.569Z,1024.41
2023-04-03T01:29:11.545Z,1024.50
2023-04-03T01:30:11.540Z,1024.44
2023-04-03T01:31:11.562Z,1024.44
2023-04-03T01:32:11.531Z,1024.48
2023-04-03T01:33:11.500Z,1024.49
2023-04-03T01:34:11.517Z,1024.51
2023-04-03T01:35:11.479Z,1024.58
2023-04-03T01:36:11.528Z,1024.54
2023-04-03T01:37:11.477Z,1024.51
2023-04-03T01:38:11.446Z,1024.55
2023-04-03T01:39:11.433Z,1024.56
2023-04-03T01:40:11.429Z,1024.57
2023-04-03T01:41:11.412Z,1024.61
2023-04-03T01:42:11.427Z,1024.62
2023-04-03T01:43:11.389Z,1024.65
2023-04-03T01:44:11.379Z,1024.54
2023-04-03T01:45:11.372Z,1024.57
2023-04-03T01:46:11.447Z,1024.59
2023-04-03T01:47:11.344Z,1024.58
2023-04-03T01:48:11.359Z,1024.59
2023-04-03T01:49:11.332Z,1024.62
2023-04-03T01:50:11.339Z,1024.58
2023-04-03T01:51:11.303Z,1024.59
2023-04-03T01:52:11.294Z,1024.60
2023-04-03T01:53:11.286Z,1024.66
2023-04-03T01:54:11.297Z,1024.70
2023-04-03T01:55:11.266Z,1024.69
2023-04-03T01:56:11.249Z,1024.65
2023-04-03T01:57:11.303Z,1024.68
2023-04-03T01:58:11.236Z,1024.67
2023-04-03T01:59:11.219Z,1024.68
2023-04-03T02:00:11.235Z,1024.60
2023-04-03T02:01:11.258Z,1024.64
2023-04-03T02:02:11.180Z,1024.64
2023-04-03T02:03:11.196Z,1024.69
2023-04-03T02:04:11.208Z,1024.68
2023-04-03T02:05:11.142Z,1024.66
2023-04-03T02:06:12.787Z,1024.72
2023-04-03T02:07:11.140Z,1024.70
2023-04-03T02:08:11.115Z,1024.71
2023-04-03T02:09:11.113Z,1024.75
2023-04-03T02:10:11.100Z,1024.75
2023-04-03T02:11:11.084Z,1024.72
2023-04-03T02:12:11.081Z,1024.72
2023-04-03T02:13:11.053Z,1024.75
2023-04-03T02:14:11.059Z,1024.72
2023-04-03T02:15:11.030Z,1024.74
2023-04-03T02:16:11.112Z,1024.74
2023-04-03T02:17:11.011Z,1024.74
2023-04-03T02:18:11.005Z,1024.72
2023-04-03T02:19:11.012Z,1024.71
2023-04-03T02:20:10.987Z,1024.74
2023-04-03T02:21:10.961Z,1024.69
2023-04-03T02:22:10.979Z,1024.72
2023-04-03T02:23:10.937Z,1024.71
2023-04-03T02:24:10.943Z,1024.73
2023-04-03T02:25:10.948Z,1024.73
2023-04-03T02:26:10.907Z,1024.73
2023-04-03T02:27:10.897Z,1024.67
2023-04-03T02:28:10.887Z,1024.71
2023-04-03T02:29:10.870Z,1024.70
2023-04-03T02:30:10.867Z,1024.74
2023-04-03T02:31:10.946Z,1024.74
2023-04-03T02:32:10.840Z,1024.80
2023-04-03T02:33:10.826Z,1024.75
2023-04-03T02:34:10.837Z,1024.76
2023-04-03T02:35:10.805Z,1024.75
2023-04-03T02:36:10.805Z,1024.77
2023-04-03T02:37:10.785Z,1024.75
2023-04-03T02:38:10.800Z,1024.79
2023-04-03T02:39:10.783Z,1024.80
2023-04-03T02:40:10.751Z,1024.84
2023-04-03T02:41:10.757Z,1024.77
2023-04-03T02:42:10.729Z,1024.84
2023-04-03T02:43:10.715Z,1024.81
2023-04-03T02:44:10.717Z,1024.82
2023-04-03T02:45:10.697Z,1024.86
2023-04-03T02:46:10.725Z,1024.85
2023-04-03T02:47:10.696Z,1024.84
2023-04-03T02:48:10.752Z,1024.88
2023-04-03T02:49:10.654Z,1024.95
2023-04-03T02:50:10.641Z,1024.92
2023-04-03T02:51:10.630Z,1024.91
2023-04-03T02:52:10.645Z,1024.91
2023-04-03T02:53:10.623Z,1024.92
2023-04-03T02:54:10.621Z,1024.98
2023-04-03T02:55:10.592Z,1024.96
2023-04-03T02:56:10.591Z,1024.96
2023-04-03T02:57:10.597Z,1024.82
2023-04-03T02:58:10.561Z,1024.90
2023-04-03T02:59:10.549Z,1024.81
2023-04-03T03:00:10.537Z,1024.85
2023-04-03T03:01:10.579Z,1024.79
2023-04-03T03:02:10.519Z,1024.87
2023-04-03T03:03:10.510Z,1024.82
2023-04-03T03:04:10.501Z,1024.84
2023-04-03T03:05:10.536Z,1024.79
2023-04-03T03:06:10.466Z,1024.82
2023-04-03T03:07:10.460Z,1024.83
2023-04-03T03:08:10.444Z,1024.84
2023-04-03T03:09:10.440Z,1024.87
2023-04-03T03:10:10.442Z,1024.86
2023-04-03T03:11:10.410Z,1024.81
2023-04-03T03:12:10.413Z,1024.86
2023-04-03T03:13:10.386Z,1024.84
2023-04-03T03:14:10.393Z,1024.80
2023-04-03T03:15:10.363Z,1024.83
2023-04-03T03:16:10.394Z,1024.85
2023-04-03T03:17:10.358Z,1024.85
2023-04-03T03:18:10.350Z,1024.87
2023-04-03T03:19:10.318Z,1024.83
2023-04-03T03:20:10.325Z,1024.87
2023-04-03T03:21:10.298Z,1024.84
2023-04-03T03:22:10.285Z,1024.80
2023-04-03T03:23:10.276Z,1024.80
2023-04-03T03:24:10.264Z,1024.78
2023-04-03T03:25:10.265Z,1024.83
2023-04-03T03:26:10.270Z,1024.88
2023-04-03T03:27:10.226Z,1024.79
2023-04-03T03:28:10.219Z,1024.81
2023-04-03T03:29:10.210Z,1024.83
2023-04-03T03:30:10.193Z,1024.82
2023-04-03T03:31:10.238Z,1024.83
2023-04-03T03:32:10.176Z,1024.79
2023-04-03T03:33:10.167Z,1024.81
2023-04-03T03:34:10.148Z,1024.82
2023-04-03T03:35:10.136Z,1024.83
2023-04-03T03:36:10.197Z,1024.85
2023-04-03T03:37:10.119Z,1024.88
2023-04-03T03:38:10.107Z,1024.83
2023-04-03T03:39:10.105Z,1024.86
2023-04-03T03:40:10.081Z,1024.86
2023-04-03T03:41:10.104Z,1024.87
2023-04-03T03:42:10.082Z,1024.87
2023-04-03T03:43:10.063Z,1024.87
2023-04-03T03:44:10.056Z,1024.85
2023-04-03T03:45:10.038Z,1024.90
2023-04-03T03:46:10.055Z,1024.91
2023-04-03T03:47:10.017Z,1024.89
2023-04-03T03:48:10.011Z,1024.91
2023-04-03T03:49:09.988Z,1024.82
2023-04-03T03:50:09.974Z,1024.85
2023-04-03T03:51:10.007Z,1024.81
2023-04-03T03:52:09.956Z,1024.86
2023-04-03T03:53:09.950Z,1024.91
2023-04-03T03:54:09.923Z,1024.81
2023-04-03T03:55:09.919Z,1024.82
2023-04-03T03:56:09.916Z,1024.90
2023-04-03T03:57:10.007Z,1024.89
2023-04-03T03:58:09.940Z,1024.92
2023-04-03T03:59:09.874Z,1024.93
2023-04-03T04:00:09.868Z,1024.93
2023-04-03T04:01:09.892Z,1024.95
2023-04-03T04:02:09.868Z,1025.01
2023-04-03T04:03:09.895Z,1025.01
2023-04-03T04:04:09.864Z,1025.02
2023-04-03T04:05:09.817Z,1025.10
2023-04-03T04:06:09.803Z,1025.03
2023-04-03T04:07:09.783Z,1025.01
2023-04-03T04:08:09.770Z,1025.03
2023-04-03T04:09:09.767Z,1025.07
2023-04-03T04:10:09.767Z,1025.03
2023-04-03T04:11:09.750Z,1025.05
2023-04-03T04:12:09.742Z,1025.07
2023-04-03T04:13:09.716Z,1025.05
2023-04-03T04:14:09.723Z,1025.11
2023-04-03T04:15:09.700Z,1025.10
2023-04-03T04:16:09.702Z,1025.09
2023-04-03T04:17:09.679Z,1025.17
2023-04-03T04:18:09.668Z,1025.03
2023-04-03T04:19:09.671Z,1025.12
2023-04-03T04:20:09.643Z,1025.12
2023-04-03T04:21:09.659Z,1025.17
2023-04-03T04:22:09.617Z,1025.12
2023-04-03T04:23:09.606Z,1025.19
2023-04-03T04:24:09.606Z,1025.15
2023-04-03T04:25:09.585Z,1025.20
2023-04-03T04:26:09.571Z,1025.20
2023-04-03T04:27:09.561Z,1025.20
2023-04-03T04:28:09.580Z,1025.24
2023-04-03T04:29:09.538Z,1025.28
2023-04-03T04:30:09.579Z,1025.21
2023-04-03T04:31:09.729Z,1025.27
2023-04-03T04:32:09.506Z,1025.24
2023-04-03T04:33:09.584Z,1025.23
2023-04-03T04:34:09.496Z,1025.23
2023-04-03T04:35:09.513Z,1025.24
2023-04-03T04:36:09.542Z,1025.24
2023-04-03T04:37:09.488Z,1025.25
2023-04-03T04:38:09.456Z,1025.34
2023-04-03T04:39:09.443Z,1025.31
2023-04-03T04:40:09.413Z,1025.31
2023-04-03T04:41:09.412Z,1025.25
2023-04-03T04:42:09.394Z,1025.32
2023-04-03T04:43:09.382Z,1025.36
2023-04-03T04:44:09.371Z,1025.34
2023-04-03T04:45:09.373Z,1025.43
2023-04-03T04:46:09.436Z,1025.39
2023-04-03T04:47:09.336Z,1025.40
2023-04-03T04:48:09.327Z,1025.40
2023-04-03T04:49:09.316Z,1025.40
2023-04-03T04:50:09.313Z,1025.43
2023-04-03T04:51:09.293Z,1025.39
2023-04-03T04:52:09.287Z,1025.43
2023-04-03T04:53:09.291Z,1025.49
2023-04-03T04:54:09.253Z,1025.48
2023-04-03T04:55:09.244Z,1025.48
2023-04-03T04:56:09.240Z,1025.55
2023-04-03T04:57:09.326Z,1025.52
2023-04-03T04:58:09.216Z,1025.55
2023-04-03T04:59:09.224Z,1025.49
2023-04-03T05:00:09.220Z,1025.57
2023-04-03T05:01:09.219Z,1025.51
2023-04-03T05:02:09.232Z,1025.62
2023-04-03T05:03:09.209Z,1025.56
2023-04-03T05:04:09.142Z,1025.61
2023-04-03T05:05:09.218Z,1025.51
2023-04-03T05:06:09.150Z,1025.55
2023-04-03T05:07:09.117Z,1025.61
2023-04-03T05:08:09.138Z,1025.54
2023-04-03T05:09:09.126Z,1025.52
2023-04-03T05:10:09.087Z,1025.54
2023-04-03T05:11:09.079Z,1025.53
2023-04-03T05:12:09.056Z,1025.54
2023-04-03T05:13:09.056Z,1025.56
2023-04-03T05:14:09.048Z,1025.58
2023-04-03T05:15:09.046Z,1025.61
2023-04-03T05:16:09.020Z,1025.57
2023-04-03T05:17:09.005Z,1025.61
2023-04-03T05:18:09.037Z,1025.62
2023-04-03T05:19:08.985Z,1025.61
2023-04-03T05:20:08.966Z,1025.57
2023-04-03T05:21:08.960Z,1025.61
2023-04-03T05:22:08.955Z,1025.65
2023-04-03T05:23:08.944Z,1025.66
2023-04-03T05:24:08.939Z,1025.65
2023-04-03T05:25:08.919Z,1025.68
2023-04-03T05:26:08.904Z,1025.65
2023-04-03T05:27:08.896Z,1025.70
2023-04-03T05:28:08.911Z,1025.71
2023-04-03T05:29:08.917Z,1025.74
2023-04-03T05:30:08.864Z,1025.75
2023-04-03T05:31:08.881Z,1025.80
2023-04-03T05:32:08.839Z,1025.71
2023-04-03T05:33:08.857Z,1025.76
2023-04-03T05:34:08.842Z,1025.76
2023-04-03T05:35:08.803Z,1025.75
2023-04-03T05:36:08.829Z,1025.73
2023-04-03T05:37:08.792Z,1025.77
2023-04-03T05:38:08.767Z,1025.78
2023-04-03T05:39:08.762Z,1025.76
2023-04-03T05:40:08.763Z,1025.80
2023-04-03T05:41:08.740Z,1025.81
2023-04-03T05:42:08.732Z,1025.79
2023-04-03T05:43:08.715Z,1025.79
2023-04-03T05:44:08.694Z,1025.78
2023-04-03T05:45:08.699Z,1025.85
2023-04-03T05:46:08.720Z,1025.91
2023-04-03T05:47:08.672Z,1025.90
2023-04-03T05:48:08.687Z,1025.89
2023-04-03T05:49:08.660Z,1025.91
2023-04-03T05:50:08.657Z,1025.87
2023-04-03T05:51:08.624Z,1025.90
2023-04-03T05:52:08.643Z,1025.90
2023-04-03T05:53:08.605Z,1025.90
2023-04-03T05:54:08.585Z,1025.99
2023-04-03T05:55:08.604Z,1025.98
2023-04-03T05:56:08.590Z,1025.96
2023-04-03T05:57:08.570Z,1026.03
2023-04-03T05:58:10.466Z,1025.93
2023-04-03T05:59:15.640Z,1025.95
2023-04-03T06:00:08.515Z,1026.01
2023-04-03T06:01:08.516Z,1025.98
2023-04-03T06:02:08.510Z,1026.00
2023-04-03T06:03:08.704Z,1025.98
2023-04-03T06:04:08.549Z,1025.99
2023-04-03T06:05:08.492Z,1026.07
2023-04-03T06:06:08.481Z,1026.05
2023-04-03T06:07:08.473Z,1026.06
2023-04-03T06:08:08.442Z,1026.02
2023-04-03T06:09:08.422Z,1026.05
2023-04-03T06:10:08.414Z,1026.08
2023-04-03T06:11:08.411Z,1026.13
2023-04-03T06:12:08.406Z,1026.04
2023-04-03T06:13:08.384Z,1026.11
2023-04-03T06:14:08.385Z,1026.14
2023-04-03T06:15:08.354Z,1026.20
2023-04-03T06:16:08.343Z,1026.18
2023-04-03T06:17:08.388Z,1026.20
2023-04-03T06:18:08.396Z,1026.23
2023-04-03T06:19:08.318Z,1026.15
2023-04-03T06:20:08.293Z,1026.14
2023-04-03T06:21:08.295Z,1026.20
2023-04-03T06:22:08.292Z,1026.16
2023-04-03T06:23:08.683Z,1026.20
2023-04-03T06:24:08.287Z,1026.24
2023-04-03T06:25:08.253Z,1026.26
2023-04-03T06:26:08.233Z,1026.23
2023-04-03T06:27:08.216Z,1026.29
2023-04-03T06:28:08.216Z,1026.34
2023-04-03T06:29:08.213Z,1026.30
2023-04-03T06:30:08.208Z,1026.27
2023-04-03T06:31:08.202Z,1026.26
2023-04-03T06:32:08.164Z,1026.37
2023-04-03T06:33:08.184Z,1026.37
2023-04-03T06:34:09.721Z,1026.35
2023-04-03T06:35:08.172Z,1026.34
2023-04-03T06:36:08.198Z,1026.27
2023-04-03T06:37:08.108Z,1026.29
2023-04-03T06:38:08.118Z,1026.29
2023-04-03T06:39:08.084Z,1026.27
2023-04-03T06:40:08.076Z,1026.24
2023-04-03T06:41:08.071Z,1026.25
2023-04-03T06:42:08.067Z,1026.25
2023-04-03T06:43:08.034Z,1026.30
2023-04-03T06:44:08.026Z,1026.24
2023-04-03T06:45:08.025Z,1026.31
2023-04-03T06:46:08.115Z,1026.27
2023-04-03T06:47:07.993Z,1026.28
2023-04-03T06:48:07.989Z,1026.26
2023-04-03T06:49:08.162Z,1026.29
2023-04-03T06:50:07.962Z,1026.38
2023-04-03T06:51:07.961Z,1026.32
2023-04-03T06:52:07.948Z,1026.28
2023-04-03T06:53:07.932Z,1026.42
2023-04-03T06:54:07.971Z,1026.33
2023-04-03T06:55:07.918Z,1026.42
2023-04-03T06:56:07.895Z,1026.43
2023-04-03T06:57:07.922Z,1026.41
2023-04-03T06:58:07.871Z,1026.42
2023-04-03T06:59:07.867Z,1026.49
2023-04-03T07:00:07.847Z,1026.44
2023-04-03T07:01:07.847Z,1026.47
2023-04-03T07:02:07.890Z,1026.47
2023-04-03T07:03:07.877Z,1026.44
2023-04-03T07:04:07.814Z,1026.46
2023-04-03T07:05:07.811Z,1026.52
2023-04-03T07:06:07.792Z,1026.49
2023-04-03T07:07:07.758Z,1026.51
2023-04-03T07:08:07.769Z,1026.54
2023-04-03T07:09:07.745Z,1026.53
2023-04-03T07:10:07.756Z,1026.56
2023-04-03T07:11:07.760Z,1026.54
2023-04-03T07:12:07.706Z,1026.56
2023-04-03T07:13:07.693Z,1026.60
2023-04-03T07:14:07.693Z,1026.57
2023-04-03T07:15:07.681Z,1026.68
2023-04-03T07:16:07.820Z,1026.66
2023-04-03T07:17:07.657Z,1026.67
2023-04-03T07:18:07.710Z,1026.66
2023-04-03T07:19:07.645Z,1026.66
2023-04-03T07:20:07.613Z,1026.69
2023-04-03T07:21:07.614Z,1026.73
2023-04-03T07:22:07.604Z,1026.67
2023-04-03T07:23:07.585Z,1026.73
2023-04-03T07:24:08.978Z,1026.70
2023-04-03T07:25:07.558Z,1026.73
2023-04-03T07:26:07.584Z,1026.70
2023-04-03T07:27:07.545Z,1026.73
2023-04-03T07:28:07.529Z,1026.73
2023-04-03T07:29:07.563Z,1026.78
2023-04-03T07:30:07.521Z,1026.75
2023-04-03T07:31:07.570Z,1026.73
2023-04-03T07:32:07.538Z,1026.84
2023-04-03T07:33:07.525Z,1026.76
2023-04-03T07:34:07.461Z,1026.77
2023-04-03T07:35:07.478Z,1026.77
2023-04-03T07:36:07.467Z,1026.78
2023-04-03T07:37:07.482Z,1026.67
2023-04-03T07:38:07.412Z,1026.58
2023-04-03T07:39:07.407Z,1026.61
2023-04-03T07:40:07.388Z,1026.51
2023-04-03T07:41:07.390Z,1026.56
2023-04-03T07:42:07.392Z,1026.58
2023-04-03T07:43:07.384Z,1026.48
2023-04-03T07:44:07.351Z,1026.50
2023-04-03T07:45:07.393Z,1026.51
2023-04-03T07:46:07.383Z,1026.52
2023-04-03T07:47:07.332Z,1026.49
2023-04-03T07:48:07.321Z,1026.55
2023-04-03T07:49:07.299Z,1026.52
2023-04-03T07:50:07.287Z,1026.59
2023-04-03T07:51:07.269Z,1026.57
2023-04-03T07:52:07.272Z,1026.62
2023-04-03T07:53:07.273Z,1026.59
2023-04-03T07:54:07.237Z,1026.64
2023-04-03T07:55:07.228Z,1026.70
2023-04-03T07:56:07.212Z,1026.63
2023-04-03T07:57:07.265Z,1026.70
2023-04-03T07:58:07.251Z,1026.68
2023-04-03T07:59:07.175Z,1026.72
2023-04-03T08:00:07.186Z,1026.69
2023-04-03T08:01:07.185Z,1026.74
2023-04-03T08:02:07.154Z,1026.72
2023-04-03T08:03:09.608Z,1026.81
2023-04-03T08:04:07.183Z,1026.72
2023-04-03T08:05:07.156Z,1026.75
2023-04-03T08:06:11.598Z,1026.82
2023-04-03T08:07:08.124Z,1026.78
2023-04-03T08:08:07.076Z,1026.69
2023-04-03T08:09:07.072Z,1026.75
2023-04-03T08:10:07.066Z,1026.76
2023-04-03T08:11:07.045Z,1026.79
2023-04-03T08:12:07.032Z,1026.70
2023-04-03T08:13:07.052Z,1026.75
2023-04-03T08:14:07.047Z,1026.74
2023-04-03T08:15:07.004Z,1026.78
2023-04-03T08:16:06.998Z,1026.74
2023-04-03T08:17:07.005Z,1026.82
2023-04-03T08:18:07.053Z,1026.81
2023-04-03T08:19:09.684Z,1026.75
2023-04-03T08:20:07.958Z,1026.75
2023-04-03T08:21:06.947Z,1026.82
2023-04-03T08:22:06.917Z,1026.86
2023-04-03T08:23:06.915Z,1026.66
2023-04-03T08:24:06.893Z,1026.82
2023-04-03T08:25:06.878Z,1026.67
2023-04-03T08:26:06.870Z,1026.79
2023-04-03T08:27:06.879Z,1026.73
2023-04-03T08:28:06.866Z,1026.77
2023-04-03T08:29:06.832Z,1026.71
2023-04-03T08:30:06.908Z,1026.78
2023-04-03T08:31:06.862Z,1026.82
2023-04-03T08:32:06.806Z,1026.75
2023-04-03T08:33:06.882Z,1026.84
2023-04-03T08:34:06.795Z,1026.82
2023-04-03T08:35:06.766Z,1026.87
2023-04-03T08:36:06.821Z,1026.85
2023-04-03T08:37:06.756Z,1026.88
2023-04-03T08:38:06.811Z,1026.85
2023-04-03T08:39:06.725Z,1026.83
2023-04-03T08:40:06.716Z,1026.88
2023-04-03T08:41:06.724Z,1026.85
2023-04-03T08:42:06.697Z,1026.93
2023-04-03T08:43:06.695Z,1026.85
2023-04-03T08:44:06.684Z,1026.90
2023-04-03T08:45:06.666Z,1026.82
2023-04-03T08:46:06.796Z,1026.84
2023-04-03T08:47:06.639Z,1026.87
2023-04-03T08:48:06.750Z,1026.96
2023-04-03T08:49:06.666Z,1026.96
2023-04-03T08:50:06.614Z,1026.91
2023-04-03T08:51:10.924Z,1026.86
2023-04-03T08:52:07.592Z,1026.86
2023-04-03T08:53:06.566Z,1026.84
2023-04-03T08:54:06.598Z,1026.79
2023-04-03T08:55:06.550Z,1026.85
2023-04-03T08:56:06.584Z,1026.86
2023-04-03T08:57:06.558Z,1026.87
2023-04-03T08:58:06.796Z,1026.96
2023-04-03T08:59:06.494Z,1026.92
2023-04-03T09:00:06.580Z,1026.91
2023-04-03T09:01:06.482Z,1026.75
2023-04-03T09:02:06.693Z,1026.86
2023-04-03T09:03:06.513Z,1026.80
2023-04-03T09:04:06.553Z,1026.83
2023-04-03T09:05:06.444Z,1026.79
2023-04-03T09:06:06.421Z,1026.81
2023-04-03T09:07:06.406Z,1026.72
2023-04-03T09:08:06.414Z,1026.75
2023-04-03T09:09:06.394Z,1026.83
2023-04-03T09:10:06.404Z,1026.80
2023-04-03T09:11:06.360Z,1026.87
2023-04-03T09:12:06.358Z,1026.84
2023-04-03T09:13:06.346Z,1026.83
2023-04-03T09:14:06.331Z,1026.83
2023-04-03T09:15:06.336Z,1026.80
2023-04-03T09:16:06.380Z,1026.79
2023-04-03T09:17:06.307Z,1026.88
2023-04-03T09:18:06.436Z,1026.79
2023-04-03T09:19:06.273Z,1026.78
2023-04-03T09:20:06.264Z,1026.82
2023-04-03T09:21:06.262Z,1026.83
2023-04-03T09:22:06.266Z,1026.80
2023-04-03T09:23:06.225Z,1026.92
2023-04-03T09:24:06.218Z,1026.78
2023-04-03T09:25:06.201Z,1026.73
2023-04-03T09:26:06.198Z,1026.83
2023-04-03T09:27:06.207Z,1026.76
2023-04-03T09:28:06.171Z,1026.80
2023-04-03T09:29:06.159Z,1026.81
2023-04-03T09:30:06.153Z,1026.81
2023-04-03T09:31:06.193Z,1026.82
2023-04-03T09:32:06.141Z,1026.80
2023-04-03T09:33:06.144Z,1026.82
2023-04-03T09:34:06.229Z,1026.81
2023-04-03T09:35:18.979Z,1026.78
2023-04-03T09:36:07.099Z,1026.80
2023-04-03T09:37:06.098Z,1026.81
2023-04-03T09:38:06.058Z,1026.77
2023-04-03T09:39:06.063Z,1026.77
2023-04-03T09:40:06.050Z,1026.69
2023-04-03T09:41:06.049Z,1026.70
2023-04-03T09:42:06.070Z,1026.74
2023-04-03T09:43:06.000Z,1026.77
2023-04-03T09:44:05.991Z,1026.73
2023-04-03T09:45:05.977Z,1026.78
2023-04-03T09:46:05.984Z,1026.79
2023-04-03T09:47:06.024Z,1026.80
2023-04-03T09:48:08.417Z,1026.76
2023-04-03T09:49:09.411Z,1026.77
2023-04-03T09:50:06.042Z,1026.70
2023-04-03T09:51:05.915Z,1026.75
2023-04-03T09:52:05.941Z,1026.71
2023-04-03T09:53:05.890Z,1026.71
2023-04-03T09:54:05.882Z,1026.78
2023-04-03T09:55:05.863Z,1026.80
2023-04-03T09:56:05.852Z,1026.72
2023-04-03T09:57:05.870Z,1026.63
2023-04-03T09:58:05.841Z,1026.69
2023-04-03T09:59:05.824Z,1026.67
2023-04-03T10:00:05.818Z,1026.60
2023-04-03T10:01:05.861Z,1026.61
2023-04-03T10:02:05.790Z,1026.74
2023-04-03T10:03:05.863Z,1026.62
2023-04-03T10:04:05.785Z,1026.64
2023-04-03T10:05:09.907Z,1026.67
2023-04-03T10:06:05.865Z,1026.61
2023-04-03T10:07:05.749Z,1026.75
2023-04-03T10:08:05.732Z,1026.67
2023-04-03T10:09:05.716Z,1026.65
2023-04-03T10:10:05.699Z,1026.64
2023-04-03T10:11:05.687Z,1026.62
2023-04-03T10:12:05.712Z,1026.62
2023-04-03T10:13:05.673Z,1026.59
2023-04-03T10:14:07.279Z,1026.62
2023-04-03T10:15:05.681Z,1026.62
2023-04-03T10:16:05.728Z,1026.72
2023-04-03T10:17:05.617Z,1026.72
2023-04-03T10:18:17.875Z,1026.70
2023-04-03T10:19:06.618Z,1026.62
2023-04-03T10:20:05.592Z,1026.58
2023-04-03T10:21:06.192Z,1026.60
2023-04-03T10:22:05.736Z,1026.59
2023-04-03T10:23:05.550Z,1026.57
2023-04-03T10:24:05.600Z,1026.71
2023-04-03T10:25:05.539Z,1026.59
2023-04-03T10:26:05.532Z,1026.56
2023-04-03T10:27:05.514Z,1026.47
2023-04-03T10:28:05.517Z,1026.52
2023-04-03T10:29:05.490Z,1026.57
2023-04-03T10:30:05.473Z,1026.59
2023-04-03T10:31:05.472Z,1026.53
2023-04-03T10:32:05.448Z,1026.48
2023-04-03T10:33:05.578Z,1026.62
2023-04-03T10:34:05.503Z,1026.47
2023-04-03T10:35:05.728Z,1026.42
2023-04-03T10:36:05.418Z,1026.45
2023-04-03T10:37:05.390Z,1026.42
2023-04-03T10:38:05.507Z,1026.42
2023-04-03T10:39:05.375Z,1026.63
2023-04-03T10:40:05.368Z,1026.44
2023-04-03T10:41:05.366Z,1026.40
2023-04-03T10:42:16.685Z,1026.41
2023-04-03T10:43:06.342Z,1026.35
2023-04-03T10:44:05.319Z,1026.32
2023-04-03T10:45:05.306Z,1026.34
2023-04-03T10:46:05.350Z,1026.31
2023-04-03T10:47:05.299Z,1026.31
2023-04-03T10:48:05.322Z,1026.35
2023-04-03T10:49:05.254Z,1026.33
2023-04-03T10:50:05.248Z,1026.37
2023-04-03T10:51:05.245Z,1026.35
2023-04-03T10:52:05.225Z,1026.28
2023-04-03T10:53:05.243Z,1026.35
2023-04-03T10:54:05.380Z,1026.37
2023-04-03T10:55:05.194Z,1026.29
2023-04-03T10:56:05.196Z,1026.28
2023-04-03T10:57:12.732Z,1026.23
2023-04-03T10:58:06.159Z,1026.14
2023-04-03T10:59:05.145Z,1026.14
2023-04-03T11:00:05.142Z,1026.13
2023-04-03T11:01:05.171Z,1026.24
2023-04-03T11:02:05.118Z,1026.26
2023-04-03T11:03:05.261Z,1026.20
2023-04-03T11:04:05.327Z,1026.21
2023-04-03T11:05:05.093Z,1026.20
2023-04-03T11:06:05.080Z,1026.20
2023-04-03T11:07:05.064Z,1026.11
2023-04-03T11:08:05.061Z,1026.06
2023-04-03T11:09:05.040Z,1026.09
2023-04-03T11:10:05.172Z,1026.20
2023-04-03T11:11:05.021Z,1026.15
2023-04-03T11:12:05.017Z,1026.15
2023-04-03T11:13:05.000Z,1026.07
2023-04-03T11:14:04.998Z,1026.15
2023-04-03T11:15:04.982Z,1026.08
2023-04-03T11:16:05.008Z,1026.11
2023-04-03T11:17:04.952Z,1026.19
2023-04-03T11:18:04.967Z,1026.13
2023-04-03T11:19:04.959Z,1026.14
2023-04-03T11:20:04.911Z,1026.14
2023-04-03T11:21:04.902Z,1026.21
2023-04-03T11:22:04.899Z,1026.12
2023-04-03T11:23:04.959Z,1026.10
2023-04-03T11:24:04.893Z,1026.11
2023-04-03T11:25:04.854Z,1026.12
2023-04-03T11:26:04.963Z,1026.12
2023-04-03T11:27:04.847Z,1026.02
2023-04-03T11:28:04.834Z,1026.00
2023-04-03T11:29:04.832Z,1026.08
2023-04-03T11:30:04.794Z,1026.06
2023-04-03T11:31:04.895Z,1026.04
2023-04-03T11:32:04.794Z,1026.05
2023-04-03T11:33:04.822Z,1026.06
2023-04-03T11:34:04.753Z,1026.00
2023-04-03T11:35:04.743Z,1026.01
2023-04-03T11:36:09.877Z,1026.00
2023-04-03T11:37:05.720Z,1026.01
2023-04-03T11:38:04.706Z,1025.96
2023-04-03T11:39:04.700Z,1026.03
2023-04-03T11:40:04.713Z,1025.98
2023-04-03T11:41:04.670Z,1026.01
2023-04-03T11:42:12.786Z,1025.97
2023-04-03T11:43:05.674Z,1025.93
2023-04-03T11:44:04.638Z,1025.97
2023-04-03T11:45:04.644Z,1025.97
2023-04-03T11:46:04.615Z,1025.87
2023-04-03T11:47:04.723Z,1025.92
2023-04-03T11:48:16.682Z,1025.84
2023-04-03T11:49:05.602Z,1025.92
2023-04-03T11:50:04.570Z,1025.99
2023-04-03T11:51:04.575Z,1025.93
2023-04-03T11:52:04.556Z,1025.91
2023-04-03T11:53:04.541Z,1025.86
2023-04-03T11:54:04.576Z,1025.85
2023-04-03T11:55:04.516Z,1025.80
2023-04-03T11:56:04.512Z,1025.84
2023-04-03T11:57:04.540Z,1025.87
2023-04-03T11:58:04.613Z,1025.82
2023-04-03T11:59:05.309Z,1025.81
2023-04-03T12:00:12.059Z,1025.78
2023-04-03T12:01:04.479Z,1025.81
2023-04-03T12:02:04.591Z,1025.83
2023-04-03T12:03:04.603Z,1025.79
2023-04-03T12:04:04.549Z,1025.87
2023-04-03T12:05:04.424Z,1025.80